Hauptseite
METAR-TAF:

METAR-TAF

Flughäfen :

Flughafen Foz do Iguaçu

Foz do Iguaçu, Paraná, Brasilien

Breite: 25-31S, Länge: 054-35W, Höhe: 180 m

Beobachtung

Neuester Wetterbericht von vor 25 Minuten, um 05:00 UTC
Wind 10 kt aus Nord/Nordost
Temperatur 25°C
Luftfeuchtigkeit 61%
Luftdruck 1009 hPa
Sichtweite 10 km oder mehr
keine Wolken unter 1500 m und keine Kumulonimbus oder Gewitterwolken

METAR: SBFI 230500Z 03010KT CAVOK 25/17 Q1009

Zeit: 02:25 (05:25 UTC)

Prognose

Neuester Wetterbericht von vor 8 Stunden und 25 Minuten, um 21:00 UTC
Gültige Prognose vom 23 um 00 UTC bis 23 um 24 UTC
Wind 8 kt aus Nord/Nordost
Sichtweite 10 km oder mehr
keine Wolken unter 1500 m und keine Kumulonimbus oder Gewitterwolken
Zeitweise
vom 23 um 07 UTC bis 23 um 15 UTC
Wind 10 kt aus Nord/Nordost, Böen bis zu 23 kt

TAF: SBFI 222100Z 2300/2324 02008KT CAVOK TN21/2308Z TX30/2317Z TEMPO 2307/2315 03010G23KT RMK PFP

Wetterbeobachtungen und Prognosen von mehr als 4000 Flughäfen (METAR und TAF Bericht).

Die verfügbaren Stationen werden durch gelbe und rote Markierungen auf der Karte dargestellt.

Führen Sie die Maus auf sie, um den Namen der Station zu sehen.

Darauf klicken, um die Beobachtung von Wetterbeobachtungen und Prognosen zu sehen.

Um die Karte zu ändern : klicken Sie auf den grünen Tasten mit einem schwarzen Kreuz Zum Vergrößern, auf den grünen Button mit einem Gedankenstrich zu verkleinern, oder auf die grünen Pfeile für benachbarte Karten.


METAR-TAF: